Time;durP1;ratioP1;P1;durP2;ratioP2;P2;SDS_P1;SDS_P2;PMS_P1;PMS_P2;Temp;Humidity;BMP_temperature;BMP_pressure;BME280_temperature;BME280_humidity;BME280_pressure;Samples;Min_cycle;Max_cycle;Signal;HPM_P1;HPM_P2
2023/09/10 00:00:36;;;;;;;;;;;;;;;;;;7370937;19;1791;-67
2023/09/10 00:03:05;;;;;;;;;;;;;;;;;;7373861;19;1724;-66
2023/09/10 00:05:33;;;;;;;;;;;;;;;;;;7369282;19;1709;-66
2023/09/10 00:08:01;;;;;;;;;;;;;;;;;;7372310;19;1713;-66
2023/09/10 00:10:29;;;;;;;;;;;;;;;;;;7371745;19;1861;-65
2023/09/10 00:12:57;;;;;;;;;;;;;;;;;;7373233;19;1628;-65
2023/09/10 00:15:25;;;;;;;;;;;;;;;;;;7371896;19;1846;-67
2023/09/10 00:17:54;;;;;;;;;;;;;;;;;;7371424;19;1805;-65
2023/09/10 00:20:22;;;;;;;;;;;;;;;;;;7373240;19;1473;-65
2023/09/10 00:22:50;;;;;;;;;;;;;;;;;;7369055;19;863;-65
2023/09/10 00:25:18;;;;;;;;;;;;;;;;;;7368790;19;1793;-66
2023/09/10 00:27:46;;;;;;;;;;;;;;;;;;7371260;19;1245;-66
2023/09/10 00:30:12;;;;;;;;;;;;;;;;;;7366360;19;1985;-66
2023/09/10 00:32:40;;;;;;;;;;;;;;;;;;7368598;19;2058;-65
2023/09/10 00:35:09;;;;;;;;;;;;;;;;;;7371057;19;1550;-65
2023/09/10 00:37:38;;;;;;;;;;;;;;;;;;7367289;19;1630;-66
2023/09/10 00:40:06;;;;;;;;;;;;;;;;;;7367500;19;2057;-66
2023/09/10 00:42:34;;;;;;;;;;;;;;;;;;7372002;19;1474;-66
2023/09/10 00:45:03;;;;;;;;;;;;;;;;;;7369236;19;2067;-64
2023/09/10 00:47:32;;;;;;;;;;;;;;;;;;7368074;19;1642;-65
2023/09/10 00:50:00;;;;;;;;;;;;;;;;;;7371826;19;1863;-67
2023/09/10 00:52:28;;;;;;;;;;;;;;;;;;7371681;19;1719;-68
2023/09/10 00:54:56;;;;;;;;;;;;;;;;;;7366915;19;1768;-66
2023/09/10 00:57:24;;;;;;;;;;;;;;;;;;7367908;19;1782;-67
2023/09/10 00:59:52;;;;;;;;;;;;;;;;;;7372216;19;1879;-65
2023/09/10 01:02:21;;;;;;;;;;;;;;;;;;7362904;19;1972;-66
2023/09/10 01:04:50;;;;;;;;;;;;;;;;;;7369190;19;1639;-66
2023/09/10 01:07:19;;;;;;;;;;;;;;;;;;7368601;19;1643;-66
2023/09/10 01:09:47;;;;;;;;;;;;;;;;;;7368303;19;2012;-66
2023/09/10 01:12:15;;;;;;;;;;;;;;;;;;7370004;19;1990;-66
2023/09/10 01:14:43;;;;;;;;;;;;;;;;;;7368651;19;1801;-66
2023/09/10 01:17:13;;;;;;;;;;;;;;;;;;7367443;19;1743;-67
2023/09/10 01:19:41;;;;;;;;;;;;;;;;;;7367819;19;1879;-66
2023/09/10 01:22:07;;;;;;;;;;;;;;;;;;7369231;19;1727;-65
2023/09/10 01:24:35;;;;;;;;;;;;;;;;;;7365040;19;1869;-69
2023/09/10 01:27:03;;;;;;;;;;;;;;;;;;7367680;19;1687;-65
2023/09/10 01:29:33;;;;;;;;;;;;;;;;;;7367654;19;1857;-66
2023/09/10 01:32:01;;;;;;;;;;;;;;;;;;7365607;19;909;-67
2023/09/10 01:34:29;;;;;;;;;;;;;;;;;;7365698;19;2150;-66
2023/09/10 01:36:57;;;;;;;;;;;;;;;;;;7364762;19;1905;-66
2023/09/10 01:39:26;;;;;;;;;;;;;;;;;;7369065;19;1661;-66
2023/09/10 01:41:54;;;;;;;;;;;;;;;;;;7370063;19;1653;-65
2023/09/10 01:44:22;;;;;;;;;;;;;;;;;;7367147;19;2000;-65
2023/09/10 01:46:51;;;;;;;;;;;;;;;;;;7366229;19;1465;-66
2023/09/10 01:49:19;;;;;;;;;;;;;;;;;;7365168;19;1846;-66
2023/09/10 01:51:47;;;;;;;;;;;;;;;;;;7365870;19;868;-66
2023/09/10 01:54:15;;;;;;;;;;;;;;;;;;7365376;19;2071;-66
2023/09/10 01:56:43;;;;;;;;;;;;;;;;;;7365828;19;1830;-66
2023/09/10 01:59:11;;;;;;;;;;;;;;;;;;7366263;19;1956;-65
2023/09/10 02:01:40;;;;;;;;;;;;;;;;;;7367734;19;1705;-66
2023/09/10 02:04:08;;;;;;;;;;;;;;;;;;7369467;19;1873;-67
2023/09/10 02:06:36;;;;;;;;;;;;;;;;;;7367003;19;1468;-67
2023/09/10 02:09:05;;;;;;;;;;;;;;;;;;7368458;19;1673;-66
2023/09/10 02:11:33;;;;;;;;;;;;;;;;;;7365286;19;1988;-66
2023/09/10 02:14:02;;;;;;;;;;;;;;;;;;7366457;19;1962;-66
2023/09/10 02:16:30;;;;;;;;;;;;;;;;;;7367117;19;1701;-66
2023/09/10 02:18:58;;;;;;;;;;;;;;;;;;7368281;19;2045;-66
2023/09/10 02:21:27;;;;;;;;;;;;;;;;;;7369289;19;1474;-66
2023/09/10 02:23:55;;;;;;;;;;;;;;;;;;7366487;19;1971;-66
2023/09/10 02:26:24;;;;;;;;;;;;;;;;;;7368287;19;1657;-65
2023/09/10 02:28:52;;;;;;;;;;;;;;;;;;7365686;19;819;-66
2023/09/10 02:31:20;;;;;;;;;;;;;;;;;;7363663;19;1854;-66
2023/09/10 02:33:48;;;;;;;;;;;;;;;;;;7365979;19;1642;-66
2023/09/10 02:36:16;;;;;;;;;;;;;;;;;;7368228;19;1857;-66
2023/09/10 02:38:44;;;;;;;;;;;;;;;;;;7366827;19;2012;-66
2023/09/10 02:41:13;;;;;;;;;;;;;;;;;;7367850;19;1469;-67
2023/09/10 02:43:41;;;;;;;;;;;;;;;;;;7364643;19;1730;-67
2023/09/10 02:46:09;;;;;;;;;;;;;;;;;;7364229;19;1819;-67
2023/09/10 02:48:37;;;;;;;;;;;;;;;;;;7366970;19;1459;-67
2023/09/10 02:51:05;;;;;;;;;;;;;;;;;;7362654;19;1845;-66
2023/09/10 02:53:33;;;;;;;;;;;;;;;;;;7365458;19;1826;-66
2023/09/10 02:56:02;;;;;;;;;;;;;;;;;;7364508;19;1640;-66
2023/09/10 02:58:30;;;;;;;;;;;;;;;;;;7369635;19;1788;-66
2023/09/10 03:00:58;;;;;;;;;;;;;;;;;;7367565;19;1961;-66
2023/09/10 03:03:27;;;;;;;;;;;;;;;;;;7368443;19;1544;-66
2023/09/10 03:05:55;;;;;;;;;;;;;;;;;;7364836;19;1762;-66
2023/09/10 03:08:23;;;;;;;;;;;;;;;;;;7371308;19;1966;-66
2023/09/10 03:10:51;;;;;;;;;;;;;;;;;;7372101;19;1863;-67
2023/09/10 03:13:19;;;;;;;;;;;;;;;;;;7369623;19;1854;-66
2023/09/10 03:15:48;;;;;;;;;;;;;;;;;;7370810;19;1719;-66
2023/09/10 03:18:16;;;;;;;;;;;;;;;;;;7373288;19;1488;-66
2023/09/10 03:20:44;;;;;;;;;;;;;;;;;;7369232;19;810;-66
2023/09/10 03:23:12;;;;;;;;;;;;;;;;;;7371365;19;1598;-66
2023/09/10 03:25:40;;;;;;;;;;;;;;;;;;7371581;19;1690;-66
2023/09/10 03:28:08;;;;;;;;;;;;;;;;;;7372497;19;1596;-67
2023/09/10 03:30:36;;;;;;;;;;;;;;;;;;7371539;19;1945;-66
2023/09/10 03:33:05;;;;;;;;;;;;;;;;;;7373962;19;1343;-65
2023/09/10 03:35:33;;;;;;;;;;;;;;;;;;7370462;19;1433;-66
2023/09/10 03:38:02;;;;;;;;;;;;;;;;;;7371514;19;2029;-65
2023/09/10 03:40:30;;;;;;;;;;;;;;;;;;7372750;19;1589;-66
2023/09/10 03:42:58;;;;;;;;;;;;;;;;;;7372333;19;1624;-66
2023/09/10 03:45:26;;;;;;;;;;;;;;;;;;7375355;19;1752;-66
2023/09/10 03:47:54;;;;;;;;;;;;;;;;;;7372735;19;1987;-67
2023/09/10 03:50:22;;;;;;;;;;;;;;;;;;7373959;19;1859;-66
2023/09/10 03:52:52;;;;;;;;;;;;;;;;;;7368829;19;840;-66
2023/09/10 03:55:20;;;;;;;;;;;;;;;;;;7372489;19;1631;-66
2023/09/10 03:57:48;;;;;;;;;;;;;;;;;;7370293;19;1723;-66
2023/09/10 04:00:16;;;;;;;;;;;;;;;;;;7369822;19;1974;-67
2023/09/10 04:02:44;;;;;;;;;;;;;;;;;;7373220;19;1462;-67
2023/09/10 04:05:12;;;;;;;;;;;;;;;;;;7372515;19;1725;-66
2023/09/10 04:07:41;;;;;;;;;;;;;;;;;;7371030;19;1831;-66
2023/09/10 04:10:09;;;;;;;;;;;;;;;;;;7373343;19;1851;-68
2023/09/10 04:12:37;;;;;;;;;;;;;;;;;;7369130;19;804;-67
2023/09/10 04:15:05;;;;;;;;;;;;;;;;;;7371621;19;1842;-67
2023/09/10 04:17:33;;;;;;;;;;;;;;;;;;7367489;19;2106;-66
2023/09/10 04:20:07;;;;;;;;;;;;;;;;;;7371764;19;2009;-66
2023/09/10 04:22:35;;;;;;;;;;;;;;;;;;7368485;19;773;-67
2023/09/10 04:25:03;;;;;;;;;;;;;;;;;;7369323;19;1689;-65
2023/09/10 04:27:31;;;;;;;;;;;;;;;;;;7367854;19;1364;-65
2023/09/10 04:30:00;;;;;;;;;;;;;;;;;;7369793;19;787;-66
2023/09/10 04:32:28;;;;;;;;;;;;;;;;;;7369049;19;796;-66
2023/09/10 04:34:56;;;;;;;;;;;;;;;;;;7369040;19;2116;-65
2023/09/10 04:37:26;;;;;;;;;;;;;;;;;;7369478;19;1647;-65
2023/09/10 04:39:54;;;;;;;;;;;;;;;;;;7368550;19;807;-66
2023/09/10 04:42:22;;;;;;;;;;;;;;;;;;7368993;19;1646;-66
2023/09/10 04:44:51;;;;;;;;;;;;;;;;;;7370030;19;1781;-66
2023/09/10 04:47:19;;;;;;;;;;;;;;;;;;7369628;19;1454;-65
2023/09/10 04:49:47;;;;;;;;;;;;;;;;;;7368076;19;1775;-65
2023/09/10 04:52:15;;;;;;;;;;;;;;;;;;7368946;19;1862;-65
2023/09/10 04:54:43;;;;;;;;;;;;;;;;;;7368712;19;1814;-66
2023/09/10 04:57:11;;;;;;;;;;;;;;;;;;7370369;19;1623;-66
2023/09/10 04:59:40;;;;;;;;;;;;;;;;;;7367456;19;1924;-66
2023/09/10 05:02:08;;;;;;;;;;;;;;;;;;7369793;19;1705;-66
2023/09/10 05:04:36;;;;;;;;;;;;;;;;;;7370474;19;2000;-66
2023/09/10 05:07:04;;;;;;;;;;;;;;;;;;7368694;19;1613;-66
2023/09/10 05:09:33;;;;;;;;;;;;;;;;;;7367653;19;825;-65
2023/09/10 05:12:01;;;;;;;;;;;;;;;;;;7367334;19;1892;-66
2023/09/10 05:14:29;;;;;;;;;;;;;;;;;;7369776;19;1601;-66
2023/09/10 05:16:57;;;;;;;;;;;;;;;;;;7367525;19;1615;-66
2023/09/10 05:19:26;;;;;;;;;;;;;;;;;;7368870;19;1628;-67
2023/09/10 05:21:57;;;;;;;;;;;;;;;;;;7369385;19;1790;-66
2023/09/10 05:24:25;;;;;;;;;;;;;;;;;;7370081;19;1776;-65
2023/09/10 05:26:53;;;;;;;;;;;;;;;;;;7364515;19;1857;-66
2023/09/10 05:29:22;;;;;;;;;;;;;;;;;;7369977;19;2007;-66
2023/09/10 05:31:50;;;;;;;;;;;;;;;;;;7361620;19;1842;-66
2023/09/10 05:34:18;;;;;;;;;;;;;;;;;;7369421;19;1619;-66
2023/09/10 05:36:47;;;;;;;;;;;;;;;;;;7366980;19;1765;-66
2023/09/10 05:39:15;;;;;;;;;;;;;;;;;;7366681;19;2144;-66
2023/09/10 05:41:44;;;;;;;;;;;;;;;;;;7367976;19;1904;-66
2023/09/10 05:44:12;;;;;;;;;;;;;;;;;;7368726;19;2059;-66
2023/09/10 05:46:40;;;;;;;;;;;;;;;;;;7366667;19;1842;-67
2023/09/10 05:49:08;;;;;;;;;;;;;;;;;;7365937;19;954;-66
2023/09/10 05:51:44;;;;;;;;;;;;;;;;;;7402272;19;1544;-65
2023/09/10 05:54:12;;;;;;;;;;;;;;;;;;7401175;19;1728;-66
2023/09/10 05:56:40;;;;;;;;;;;;;;;;;;7399603;19;1878;-64
2023/09/10 05:59:09;;;;;;;;;;;;;;;;;;7397145;19;1691;-64
2023/09/10 06:01:37;;;;;;;;;;;;;;;;;;7402484;19;1829;-64
2023/09/10 06:04:05;;;;;;;;;;;;;;;;;;7398544;19;2004;-65
2023/09/10 06:06:33;;;;;;;;;;;;;;;;;;7397809;19;1780;-65
2023/09/10 06:09:01;;;;;;;;;;;;;;;;;;7403367;19;1767;-65
2023/09/10 06:11:29;;;;;;;;;;;;;;;;;;7400489;19;1887;-65
2023/09/10 06:13:58;;;;;;;;;;;;;;;;;;7402301;19;1724;-66
2023/09/10 06:16:26;;;;;;;;;;;;;;;;;;7396785;19;1703;-66
2023/09/10 06:18:54;;;;;;;;;;;;;;;;;;7401220;19;1532;-65
2023/09/10 06:21:22;;;;;;;;;;;;;;;;;;7401273;19;1710;-66
2023/09/10 06:23:51;;;;;;;;;;;;;;;;;;7401608;19;1751;-66
2023/09/10 06:26:19;;;;;;;;;;;;;;;;;;7399871;19;1681;-66
2023/09/10 06:28:47;;;;;;;;;;;;;;;;;;7397476;19;1914;-66
2023/09/10 06:31:16;;;;;;;;;;;;;;;;;;7398765;19;2001;-66
2023/09/10 06:33:44;;;;;;;;;;;;;;;;;;7400244;19;1819;-66
2023/09/10 06:36:12;;;;;;;;;;;;;;;;;;7395526;19;1364;-66
2023/09/10 06:38:41;;;;;;;;;;;;;;;;;;7399497;19;1789;-66
2023/09/10 06:41:10;;;;;;;;;;;;;;;;;;7399295;19;1952;-65
2023/09/10 06:43:38;;;;;;;;;;;;;;;;;;7398904;19;2048;-69
2023/09/10 06:46:12;;;;;;;;;;;;;;;;;;7400016;19;1745;-67
2023/09/10 06:48:40;;;;;;;;;;;;;;;;;;7401540;19;1838;-67
2023/09/10 06:51:08;;;;;;;;;;;;;;;;;;7399803;19;1842;-67
2023/09/10 06:53:37;;;;;;;;;;;;;;;;;;7400107;19;1792;-67
2023/09/10 06:56:05;;;;;;;;;;;;;;;;;;7399406;19;1848;-66
2023/09/10 06:58:33;;;;;;;;;;;;;;;;;;7400948;19;1774;-67
2023/09/10 07:01:01;;;;;;;;;;;;;;;;;;7396331;19;1905;-67
2023/09/10 07:03:29;;;;;;;;;;;;;;;;;;7372151;19;1719;-67
2023/09/10 07:05:58;;;;;;;;;;;;;;;;;;7370967;19;1808;-68
2023/09/10 07:08:26;;;;;;;;;;;;;;;;;;7371663;19;2058;-67
2023/09/10 07:10:55;;;;;;;;;;;;;;;;;;7371235;19;1860;-67
2023/09/10 07:13:24;;;;;;;;;;;;;;;;;;7373524;19;1839;-66
2023/09/10 07:15:52;;;;;;;;;;;;;;;;;;7371641;19;1706;-66
2023/09/10 07:18:20;;;;;;;;;;;;;;;;;;7371952;19;1836;-65
2023/09/10 07:20:48;;;;;;;;;;;;;;;;;;7370149;19;1690;-65
2023/09/10 07:23:16;;;;;;;;;;;;;;;;;;7372049;19;1672;-66
2023/09/10 07:25:44;;;;;;;;;;;;;;;;;;7366910;19;1244;-66
2023/09/10 07:28:12;;;;;;;;;;;;;;;;;;7369451;19;797;-66
2023/09/10 07:30:40;;;;;;;;;;;;;;;;;;7367819;19;1834;-65
2023/09/10 07:33:09;;;;;;;;;;;;;;;;;;7368738;19;794;-66
2023/09/10 07:35:37;;;;;;;;;;;;;;;;;;7367753;19;1215;-65
2023/09/10 07:38:05;;;;;;;;;;;;;;;;;;7369233;19;804;-66
2023/09/10 07:40:33;;;;;;;;;;;;;;;;;;7368240;19;810;-67
2023/09/10 07:43:02;;;;;;;;;;;;;;;;;;7369697;19;1923;-66
2023/09/10 07:45:30;;;;;;;;;;;;;;;;;;7366711;19;1735;-66
2023/09/10 07:47:59;;;;;;;;;;;;;;;;;;7370788;19;1699;-67
2023/09/10 07:50:27;;;;;;;;;;;;;;;;;;7371274;19;1858;-67
2023/09/10 07:52:56;;;;;;;;;;;;;;;;;;7369301;19;877;-67
2023/09/10 07:55:25;;;;;;;;;;;;;;;;;;7371467;19;1573;-67
2023/09/10 07:57:53;;;;;;;;;;;;;;;;;;7368763;19;789;-67
2023/09/10 08:00:21;;;;;;;;;;;;;;;;;;7368911;19;833;-67
2023/09/10 08:02:49;;;;;;;;;;;;;;;;;;7368354;19;830;-67
2023/09/10 08:05:17;;;;;;;;;;;;;;;;;;7367757;19;810;-67
2023/09/10 08:07:45;;;;;;;;;;;;;;;;;;7369956;19;1631;-66
2023/09/10 08:10:14;;;;;;;;;;;;;;;;;;7368320;19;1871;-67
2023/09/10 08:12:42;;;;;;;;;;;;;;;;;;7367531;19;790;-66
2023/09/10 08:15:10;;;;;;;;;;;;;;;;;;7366006;19;785;-66
2023/09/10 08:17:38;;;;;;;;;;;;;;;;;;7365549;19;1285;-66
2023/09/10 08:20:07;;;;;;;;;;;;;;;;;;7369383;19;1652;-66
2023/09/10 08:22:35;;;;;;;;;;;;;;;;;;7372446;19;1752;-66
2023/09/10 08:25:04;;;;;;;;;;;;;;;;;;7369261;19;2060;-66
2023/09/10 08:27:32;;;;;;;;;;;;;;;;;;7367228;19;2095;-66
2023/09/10 08:30:00;;;;;;;;;;;;;;;;;;7368046;19;2047;-64
2023/09/10 08:32:29;;;;;;;;;;;;;;;;;;7370355;19;1768;-64
2023/09/10 08:34:57;;;;;;;;;;;;;;;;;;7366444;19;1834;-64
2023/09/10 08:37:25;;;;;;;;;;;;;;;;;;7364284;19;1817;-64
2023/09/10 08:39:53;;;;;;;;;;;;;;;;;;7366663;19;1812;-65
2023/09/10 08:42:21;;;;;;;;;;;;;;;;;;7368951;19;1932;-65
2023/09/10 08:44:49;;;;;;;;;;;;;;;;;;7370243;19;1601;-65
2023/09/10 08:47:17;;;;;;;;;;;;;;;;;;7365757;19;1284;-64
2023/09/10 08:49:46;;;;;;;;;;;;;;;;;;7366491;19;843;-67
2023/09/10 08:52:14;;;;;;;;;;;;;;;;;;7365061;19;1853;-66
2023/09/10 08:54:42;;;;;;;;;;;;;;;;;;7366377;19;854;-66
2023/09/10 08:57:10;;;;;;;;;;;;;;;;;;7364829;19;1292;-65
2023/09/10 08:59:38;;;;;;;;;;;;;;;;;;7369850;19;1711;-66
2023/09/10 09:02:06;;;;;;;;;;;;;;;;;;7367012;19;880;-66
2023/09/10 09:04:34;;;;;;;;;;;;;;;;;;7365740;19;830;-65
2023/09/10 09:07:03;;;;;;;;;;;;;;;;;;7364569;19;1364;-66
2023/09/10 09:09:31;;;;;;;;;;;;;;;;;;7366870;19;833;-66
2023/09/10 09:11:59;;;;;;;;;;;;;;;;;;7364165;19;1873;-66
2023/09/10 09:14:28;;;;;;;;;;;;;;;;;;7369031;19;1923;-65
2023/09/10 09:16:57;;;;;;;;;;;;;;;;;;7364877;19;2099;-66
2023/09/10 09:19:27;;;;;;;;;;;;;;;;;;7370721;19;1360;-65
2023/09/10 09:21:55;;;;;;;;;;;;;;;;;;7366016;19;853;-65
2023/09/10 09:24:23;;;;;;;;;;;;;;;;;;7369059;19;1867;-66
2023/09/10 09:26:52;;;;;;;;;;;;;;;;;;7362527;19;1302;-66
2023/09/10 09:29:20;;;;;;;;;;;;;;;;;;7365979;19;813;-66
2023/09/10 09:31:48;;;;;;;;;;;;;;;;;;7362594;19;1838;-66
2023/09/10 09:34:17;;;;;;;;;;;;;;;;;;7366135;19;1554;-68
2023/09/10 09:36:45;;;;;;;;;;;;;;;;;;7365991;19;1680;-67
2023/09/10 09:39:15;;;;;;;;;;;;;;;;;;7367754;19;2054;-67
2023/09/10 09:41:43;;;;;;;;;;;;;;;;;;7366642;19;1876;-66
2023/09/10 09:44:11;;;;;;;;;;;;;;;;;;7368844;19;1794;-67
2023/09/10 09:46:39;;;;;;;;;;;;;;;;;;7363655;19;1874;-66
2023/09/10 09:49:07;;;;;;;;;;;;;;;;;;7368410;19;1772;-67
2023/09/10 09:51:36;;;;;;;;;;;;;;;;;;7368241;19;2189;-67
2023/09/10 09:54:04;;;;;;;;;;;;;;;;;;7365663;19;809;-67
2023/09/10 09:56:32;;;;;;;;;;;;;;;;;;7366015;19;1571;-67
2023/09/10 09:59:02;;;;;;;;;;;;;;;;;;7364540;19;804;-66
2023/09/10 10:01:30;;;;;;;;;;;;;;;;;;7363910;19;778;-67
2023/09/10 10:03:58;;;;;;;;;;;;;;;;;;7364687;19;810;-67
2023/09/10 10:06:26;;;;;;;;;;;;;;;;;;7363579;19;1347;-66
2023/09/10 10:08:54;;;;;;;;;;;;;;;;;;7368738;19;1627;-66
2023/09/10 10:11:22;;;;;;;;;;;;;;;;;;7363102;19;1838;-66
2023/09/10 10:13:50;;;;;;;;;;;;;;;;;;7364897;19;1662;-65
2023/09/10 10:16:19;;;;;;;;;;;;;;;;;;7362400;19;1297;-65
2023/09/10 10:18:47;;;;;;;;;;;;;;;;;;7364414;19;814;-65
2023/09/10 10:21:15;;;;;;;;;;;;;;;;;;7363826;19;864;-65
2023/09/10 10:23:43;;;;;;;;;;;;;;;;;;7363674;19;804;-65
2023/09/10 10:26:11;;;;;;;;;;;;;;;;;;7362475;19;1277;-66
2023/09/10 10:28:40;;;;;;;;;;;;;;;;;;7363102;19;818;-64
2023/09/10 10:31:08;;;;;;;;;;;;;;;;;;7362688;19;1858;-65
2023/09/10 10:33:36;;;;;;;;;;;;;;;;;;7363423;19;806;-65
2023/09/10 10:36:06;;;;;;;;;;;;;;;;;;7360740;19;1361;-66
2023/09/10 10:38:36;;;;;;;;;;;;;;;;;;7370143;19;894;-65
2023/09/10 10:41:04;;;;;;;;;;;;;;;;;;7370900;19;689;-65
2023/09/10 10:43:32;;;;;;;;;;;;;;;;;;7370605;19;765;-65
2023/09/10 10:46:00;;;;;;;;;;;;;;;;;;7368541;19;1259;-65
2023/09/10 10:48:28;;;;;;;;;;;;;;;;;;7369760;19;775;-65
2023/09/10 10:50:57;;;;;;;;;;;;;;;;;;7369935;19;1865;-64
2023/09/10 10:53:25;;;;;;;;;;;;;;;;;;7370540;19;987;-65
2023/09/10 10:55:53;;;;;;;;;;;;;;;;;;7368543;19;1371;-65
2023/09/10 10:58:21;;;;;;;;;;;;;;;;;;7369674;19;794;-65
2023/09/10 11:00:49;;;;;;;;;;;;;;;;;;7369113;19;903;-64
2023/09/10 11:03:17;;;;;;;;;;;;;;;;;;7369120;19;806;-65
2023/09/10 11:05:45;;;;;;;;;;;;;;;;;;7368697;19;1278;-65
2023/09/10 11:08:14;;;;;;;;;;;;;;;;;;7369639;19;754;-64
2023/09/10 11:10:42;;;;;;;;;;;;;;;;;;7369152;19;800;-64
2023/09/10 11:13:10;;;;;;;;;;;;;;;;;;7365899;19;1876;-64
2023/09/10 11:15:39;;;;;;;;;;;;;;;;;;7367981;19;1869;-65
2023/09/10 11:18:07;;;;;;;;;;;;;;;;;;7370514;19;1853;-65
2023/09/10 11:20:35;;;;;;;;;;;;;;;;;;7370392;19;1662;-65
2023/09/10 11:23:03;;;;;;;;;;;;;;;;;;7370492;19;1877;-64
2023/09/10 11:25:31;;;;;;;;;;;;;;;;;;7370321;19;1794;-68
2023/09/10 11:27:59;;;;;;;;;;;;;;;;;;7371333;19;1806;-66
2023/09/10 11:30:27;;;;;;;;;;;;;;;;;;7372017;19;1726;-65
2023/09/10 11:32:56;;;;;;;;;;;;;;;;;;7368523;19;2092;-65
2023/09/10 11:35:21;;;;;;;;;;;;;;;;;;7372681;19;1606;-65
2023/09/10 11:37:49;;;;;;;;;;;;;;;;;;7366368;19;1424;-64
2023/09/10 11:40:17;;;;;;;;;;;;;;;;;;7370141;19;1677;-65
2023/09/10 11:42:46;;;;;;;;;;;;;;;;;;7371274;19;1814;-65
2023/09/10 11:45:14;;;;;;;;;;;;;;;;;;7370945;19;1705;-64
2023/09/10 11:47:42;;;;;;;;;;;;;;;;;;7369096;19;1862;-65
2023/09/10 11:50:10;;;;;;;;;;;;;;;;;;7371004;19;1611;-64
2023/09/10 11:52:38;;;;;;;;;;;;;;;;;;7368066;19;1842;-65
2023/09/10 11:55:09;;;;;;;;;;;;;;;;;;7369828;19;1611;-64
2023/09/10 11:57:37;;;;;;;;;;;;;;;;;;7368293;19;2019;-65
2023/09/10 12:00:05;;;;;;;;;;;;;;;;;;7371741;19;1807;-65
2023/09/10 12:02:39;;;;;;;;;;;;;;;;;;7369452;19;1817;-65
2023/09/10 12:05:07;;;;;;;;;;;;;;;;;;7367017;19;1685;-65
2023/09/10 12:07:36;;;;;;;;;;;;;;;;;;7367206;19;2092;-64
2023/09/10 12:10:04;;;;;;;;;;;;;;;;;;7368540;19;1863;-65
2023/09/10 12:12:32;;;;;;;;;;;;;;;;;;7368756;19;1843;-64
2023/09/10 12:15:00;;;;;;;;;;;;;;;;;;7368200;19;1943;-64
2023/09/10 12:17:28;;;;;;;;;;;;;;;;;;7368393;19;1931;-64
2023/09/10 12:19:56;;;;;;;;;;;;;;;;;;7370544;19;1568;-65
2023/09/10 12:22:25;;;;;;;;;;;;;;;;;;7369224;19;1924;-64
2023/09/10 12:24:53;;;;;;;;;;;;;;;;;;7367601;19;1859;-65
2023/09/10 12:27:21;;;;;;;;;;;;;;;;;;7348071;19;2898;-65
2023/09/10 12:29:49;;;;;;;;;;;;;;;;;;7367127;19;1797;-65
2023/09/10 12:32:17;;;;;;;;;;;;;;;;;;7365741;19;2055;-65
2023/09/10 12:34:45;;;;;;;;;;;;;;;;;;7369781;19;1809;-65
2023/09/10 12:37:14;;;;;;;;;;;;;;;;;;7369620;19;1479;-65
2023/09/10 12:39:42;;;;;;;;;;;;;;;;;;7367052;19;790;-65
2023/09/10 12:42:10;;;;;;;;;;;;;;;;;;7367398;19;822;-65
2023/09/10 12:44:40;;;;;;;;;;;;;;;;;;7365579;19;1577;-65
2023/09/10 12:47:08;;;;;;;;;;;;;;;;;;7367525;19;1658;-65
2023/09/10 12:49:36;;;;;;;;;;;;;;;;;;7368866;19;1802;-65
2023/09/10 12:52:04;;;;;;;;;;;;;;;;;;7369702;19;1861;-64
2023/09/10 12:54:32;;;;;;;;;;;;;;;;;;7368688;19;1732;-64
2023/09/10 12:57:01;;;;;;;;;;;;;;;;;;7368759;19;1478;-65
2023/09/10 12:59:30;;;;;;;;;;;;;;;;;;7364081;19;1716;-65
2023/09/10 13:01:58;;;;;;;;;;;;;;;;;;7369543;19;1331;-65
2023/09/10 13:04:26;;;;;;;;;;;;;;;;;;7371684;19;1494;-65
2023/09/10 13:06:54;;;;;;;;;;;;;;;;;;7363042;19;1286;-65
2023/09/10 13:09:22;;;;;;;;;;;;;;;;;;7366596;19;2015;-65
2023/09/10 13:11:51;;;;;;;;;;;;;;;;;;7369241;19;1872;-65
2023/09/10 13:14:19;;;;;;;;;;;;;;;;;;7369119;19;1692;-66
2023/09/10 13:16:47;;;;;;;;;;;;;;;;;;7366579;19;1788;-66
2023/09/10 13:19:15;;;;;;;;;;;;;;;;;;7369082;19;1726;-66
2023/09/10 13:21:43;;;;;;;;;;;;;;;;;;7370364;19;1992;-68
2023/09/10 13:24:11;;;;;;;;;;;;;;;;;;7370186;19;1711;-67
2023/09/10 13:26:40;;;;;;;;;;;;;;;;;;7362744;19;1700;-66
2023/09/10 13:29:08;;;;;;;;;;;;;;;;;;7366633;19;1941;-67
2023/09/10 13:31:36;;;;;;;;;;;;;;;;;;7368239;19;1849;-67
2023/09/10 13:34:05;;;;;;;;;;;;;;;;;;7367963;19;1812;-68
2023/09/10 13:36:33;;;;;;;;;;;;;;;;;;7366742;19;1653;-65
2023/09/10 13:39:02;;;;;;;;;;;;;;;;;;7366624;19;864;-66
2023/09/10 13:41:30;;;;;;;;;;;;;;;;;;7366093;19;840;-68
2023/09/10 13:43:58;;;;;;;;;;;;;;;;;;7366489;19;813;-66
2023/09/10 13:46:26;;;;;;;;;;;;;;;;;;7363780;19;1282;-66
2023/09/10 13:48:54;;;;;;;;;;;;;;;;;;7365725;19;2098;-66
2023/09/10 13:51:23;;;;;;;;;;;;;;;;;;7369758;19;1467;-66
2023/09/10 13:53:51;;;;;;;;;;;;;;;;;;7362191;19;1846;-67
2023/09/10 13:56:19;;;;;;;;;;;;;;;;;;7367707;19;1681;-65
2023/09/10 13:58:47;;;;;;;;;;;;;;;;;;7364464;19;1987;-65
2023/09/10 14:01:15;;;;;;;;;;;;;;;;;;7368930;19;1603;-66
2023/09/10 14:03:44;;;;;;;;;;;;;;;;;;7364547;19;1916;-64
2023/09/10 14:06:12;;;;;;;;;;;;;;;;;;7365400;19;1750;-66
2023/09/10 14:08:40;;;;;;;;;;;;;;;;;;7366513;19;1923;-64
2023/09/10 14:11:08;;;;;;;;;;;;;;;;;;7368449;19;1305;-66
2023/09/10 14:13:36;;;;;;;;;;;;;;;;;;7371722;19;1854;-66
2023/09/10 14:16:05;;;;;;;;;;;;;;;;;;7372058;19;1999;-65
2023/09/10 14:18:33;;;;;;;;;;;;;;;;;;7373583;19;1746;-65
2023/09/10 14:21:01;;;;;;;;;;;;;;;;;;7374854;19;1664;-66
2023/09/10 14:23:31;;;;;;;;;;;;;;;;;;7372904;19;1699;-66
2023/09/10 14:25:59;;;;;;;;;;;;;;;;;;7372809;19;1755;-65
2023/09/10 14:28:27;;;;;;;;;;;;;;;;;;7374375;19;1581;-65
2023/09/10 14:30:55;;;;;;;;;;;;;;;;;;7374571;19;1659;-67
2023/09/10 14:33:23;;;;;;;;;;;;;;;;;;7370849;19;1885;-66
2023/09/10 14:35:52;;;;;;;;;;;;;;;;;;7371266;19;1906;-65
2023/09/10 14:38:20;;;;;;;;;;;;;;;;;;7372953;19;1929;-65
2023/09/10 14:40:48;;;;;;;;;;;;;;;;;;7372819;19;2087;-65
2023/09/10 14:43:16;;;;;;;;;;;;;;;;;;7373648;19;1646;-65
2023/09/10 14:45:44;;;;;;;;;;;;;;;;;;7370340;19;1808;-66
2023/09/10 14:48:13;;;;;;;;;;;;;;;;;;7369676;19;2112;-65
2023/09/10 14:50:41;;;;;;;;;;;;;;;;;;7373806;19;1643;-65
2023/09/10 14:53:09;;;;;;;;;;;;;;;;;;7369042;19;1853;-65
2023/09/10 14:55:37;;;;;;;;;;;;;;;;;;7368722;19;1671;-65
2023/09/10 14:58:05;;;;;;;;;;;;;;;;;;7373772;19;1805;-66
2023/09/10 15:00:34;;;;;;;;;;;;;;;;;;7372637;19;1670;-65
2023/09/10 15:03:02;;;;;;;;;;;;;;;;;;7370018;19;859;-66
2023/09/10 15:05:30;;;;;;;;;;;;;;;;;;7371865;19;1797;-66
2023/09/10 15:07:59;;;;;;;;;;;;;;;;;;7372959;19;1809;-66
2023/09/10 15:10:27;;;;;;;;;;;;;;;;;;7372423;19;1794;-66
2023/09/10 15:12:55;;;;;;;;;;;;;;;;;;7372371;19;1982;-67
2023/09/10 15:15:23;;;;;;;;;;;;;;;;;;7370250;19;1726;-66
2023/09/10 15:17:51;;;;;;;;;;;;;;;;;;7371572;19;1898;-67
2023/09/10 15:20:19;;;;;;;;;;;;;;;;;;7370243;19;1820;-67
2023/09/10 15:22:48;;;;;;;;;;;;;;;;;;7370036;19;2117;-66
2023/09/10 15:25:16;;;;;;;;;;;;;;;;;;7372297;19;1839;-65
2023/09/10 15:27:44;;;;;;;;;;;;;;;;;;7369828;19;1389;-66
2023/09/10 15:30:12;;;;;;;;;;;;;;;;;;7369233;19;1623;-67
2023/09/10 15:32:40;;;;;;;;;;;;;;;;;;7370189;19;1849;-66
2023/09/10 15:35:09;;;;;;;;;;;;;;;;;;7372422;19;1646;-66
2023/09/10 15:37:37;;;;;;;;;;;;;;;;;;7370264;19;1765;-66
2023/09/10 15:40:05;;;;;;;;;;;;;;;;;;7371992;19;1598;-66
2023/09/10 15:42:33;;;;;;;;;;;;;;;;;;7373186;19;1666;-66
2023/09/10 15:45:02;;;;;;;;;;;;;;;;;;7367622;19;1991;-67
2023/09/10 15:47:30;;;;;;;;;;;;;;;;;;7370960;19;1777;-66
2023/09/10 15:50:00;;;;;;;;;;;;;;;;;;7372321;19;1647;-67
2023/09/10 15:52:28;;;;;;;;;;;;;;;;;;7372927;19;1854;-67
2023/09/10 15:54:56;;;;;;;;;;;;;;;;;;7368186;19;828;-67
2023/09/10 15:57:25;;;;;;;;;;;;;;;;;;7369418;19;1716;-66
2023/09/10 15:59:53;;;;;;;;;;;;;;;;;;7372029;19;1327;-65
2023/09/10 16:02:22;;;;;;;;;;;;;;;;;;7369144;19;1693;-65
2023/09/10 16:04:51;;;;;;;;;;;;;;;;;;7370110;19;1678;-66
2023/09/10 16:07:19;;;;;;;;;;;;;;;;;;7365645;19;1332;-65
2023/09/10 16:09:47;;;;;;;;;;;;;;;;;;7371623;19;1732;-65
2023/09/10 16:12:15;;;;;;;;;;;;;;;;;;7369334;19;1866;-65
2023/09/10 16:14:43;;;;;;;;;;;;;;;;;;7366711;19;1865;-65
2023/09/10 16:17:12;;;;;;;;;;;;;;;;;;7368984;19;1816;-66
2023/09/10 16:19:40;;;;;;;;;;;;;;;;;;7368029;19;1890;-65
2023/09/10 16:22:08;;;;;;;;;;;;;;;;;;7371474;19;1681;-65
2023/09/10 16:24:38;;;;;;;;;;;;;;;;;;7368511;19;1569;-65
2023/09/10 16:27:06;;;;;;;;;;;;;;;;;;7369258;19;1692;-65
2023/09/10 16:29:34;;;;;;;;;;;;;;;;;;7369547;19;1576;-65
2023/09/10 16:32:03;;;;;;;;;;;;;;;;;;7370979;19;1455;-65
2023/09/10 16:34:31;;;;;;;;;;;;;;;;;;7363035;19;1831;-65
2023/09/10 16:36:59;;;;;;;;;;;;;;;;;;7369676;19;1601;-65
2023/09/10 16:39:27;;;;;;;;;;;;;;;;;;7367293;19;845;-65
2023/09/10 16:41:56;;;;;;;;;;;;;;;;;;7367528;19;778;-66
2023/09/10 16:44:27;;;;;;;;;;;;;;;;;;7367637;19;785;-65
2023/09/10 16:46:55;;;;;;;;;;;;;;;;;;7365269;19;1407;-66
2023/09/10 16:49:24;;;;;;;;;;;;;;;;;;7368018;19;995;-66
2023/09/10 16:51:52;;;;;;;;;;;;;;;;;;7367673;19;694;-65
2023/09/10 16:54:20;;;;;;;;;;;;;;;;;;7363284;19;2253;-65
2023/09/10 16:56:48;;;;;;;;;;;;;;;;;;7365584;19;1842;-68
2023/09/10 16:59:16;;;;;;;;;;;;;;;;;;7367432;19;1821;-66
2023/09/10 17:01:44;;;;;;;;;;;;;;;;;;7371128;19;1356;-66
2023/09/10 17:04:12;;;;;;;;;;;;;;;;;;7369385;19;2048;-65
2023/09/10 17:06:41;;;;;;;;;;;;;;;;;;7367580;19;1488;-66
2023/09/10 17:09:09;;;;;;;;;;;;;;;;;;7366888;19;1670;-66
2023/09/10 17:11:37;;;;;;;;;;;;;;;;;;7368622;19;1713;-66